Time;durP1;ratioP1;P1;durP2;ratioP2;P2;SDS_P1;SDS_P2;PMS_P1;PMS_P2;Temp;Humidity;BMP_temperature;BMP_pressure;BME280_temperature;BME280_humidity;BME280_pressure;Samples;Min_cycle;Max_cycle;Signal;HPM_P1;HPM_P2
2022/03/14 00:00:21;;;;;;;45.88;27.40;;;;;;;-1.04;64.72;102344.86;1748207;80;20973;-66
2022/03/14 00:02:47;;;;;;;46.33;26.85;;;;;;;-0.98;64.71;102345.63;1745336;81;21126;-66
2022/03/14 00:05:16;;;;;;;54.67;29.92;;;;;;;-0.98;64.57;102339.90;1743817;81;21142;-66
2022/03/14 00:07:46;;;;;;;50.90;29.77;;;;;;;-1.01;64.51;102338.86;1735189;81;21087;-66
2022/03/14 00:10:16;;;;;;;48.23;28.98;;;;;;;-1.02;64.54;102347.70;1733462;81;21715;-67
2022/03/14 00:12:48;;;;;;;50.30;28.42;;;;;;;-0.98;64.56;102346.95;1733426;81;21079;-67
2022/03/14 00:15:15;;;;;;;46.83;27.98;;;;;;;-0.96;64.55;102343.68;1736066;81;21345;-67
2022/03/14 00:17:47;;;;;;;54.55;30.65;;;;;;;-0.94;64.58;102343.08;1732272;81;21048;-67
2022/03/14 00:20:15;;;;;;;60.55;33.85;;;;;;;-0.93;64.62;102340.78;1735581;81;21068;-66
2022/03/14 00:22:44;;;;;;;59.58;33.88;;;;;;;-0.99;64.90;102342.64;1727770;81;21064;-67
2022/03/14 00:25:11;;;;;;;69.92;37.03;;;;;;;-0.99;64.90;102342.64;1730165;81;21075;-67
2022/03/14 00:27:39;;;;;;;76.75;40.43;;;;;;;-0.95;64.99;102346.67;1735593;81;21448;-67
2022/03/14 00:30:10;;;;;;;75.85;40.50;;;;;;;-0.87;65.12;102345.97;1732439;81;21012;-66
2022/03/14 00:32:40;;;;;;;74.58;39.25;;;;;;;-0.81;65.16;102344.94;1724536;81;20980;-67
2022/03/14 00:35:10;;;;;;;69.20;37.93;;;;;;;-0.75;65.22;102347.02;1724151;83;21166;-67
2022/03/14 00:37:43;;;;;;;73.57;38.88;;;;;;;-0.67;65.33;102346.80;1740290;81;21016;-66
2022/03/14 00:40:10;;;;;;;72.55;39.13;;;;;;;-0.63;65.39;102349.00;1753020;81;21354;-68
2022/03/14 00:42:40;;;;;;;82.08;42.62;;;;;;;-0.61;65.47;102351.50;1749521;81;20965;-67
2022/03/14 00:45:09;;;;;;;99.35;49.45;;;;;;;-0.62;65.45;102353.30;1748130;81;21535;-66
2022/03/14 00:47:37;;;;;;;107.22;52.05;;;;;;;-0.65;65.53;102350.12;1734780;81;21119;-67
2022/03/14 00:50:07;;;;;;;107.52;53.60;;;;;;;-0.67;65.58;102350.73;1735855;81;21142;-67
2022/03/14 00:52:34;;;;;;;111.37;55.25;;;;;;;-0.68;65.67;102350.41;1735521;81;21241;-66
2022/03/14 00:55:03;;;;;;;105.45;54.80;;;;;;;-0.63;65.81;102346.86;1710492;81;21020;-67
2022/03/14 00:57:30;;;;;;;108.30;54.13;;;;;;;-0.54;65.90;102351.28;1728758;81;20943;-68
2022/03/14 00:59:58;;;;;;;106.27;55.28;;;;;;;-0.51;65.88;102349.20;1722397;81;21097;-67
2022/03/14 01:02:25;;;;;;;108.17;55.67;;;;;;;-0.50;65.95;102344.78;1754438;81;21008;-65
2022/03/14 01:04:52;;;;;;;109.70;54.77;;;;;;;-0.45;66.03;102351.77;1738765;81;21726;-67
2022/03/14 01:07:19;;;;;;;108.95;56.10;;;;;;;-0.39;66.10;102350.38;1735610;81;21135;-66
2022/03/14 01:09:46;;;;;;;90.95;49.40;;;;;;;-0.34;66.10;102351.59;1736123;81;21185;-67
2022/03/14 01:12:15;;;;;;;87.40;48.38;;;;;;;-0.33;66.10;102355.05;1737786;81;21134;-66
2022/03/14 01:14:45;;;;;;;94.25;48.78;;;;;;;-0.36;66.13;102350.92;1723482;81;21071;-67
2022/03/14 01:17:12;;;;;;;94.77;51.40;;;;;;;-0.31;66.24;102352.63;1721094;83;21338;-67
2022/03/14 01:19:41;;;;;;;94.47;50.48;;;;;;;-0.24;66.30;102351.58;1720889;83;21126;-67
2022/03/14 01:22:10;;;;;;;96.70;52.58;;;;;;;-0.15;66.27;102353.36;1728217;81;21067;-66
2022/03/14 01:24:38;;;;;;;90.90;51.35;;;;;;;-0.07;66.23;102357.89;1732380;81;21102;-66
2022/03/14 01:27:06;;;;;;;87.22;48.20;;;;;;;0.01;66.26;102350.62;1733551;81;21657;-67
2022/03/14 01:29:34;;;;;;;90.67;50.45;;;;;;;0.07;66.13;102353.52;1738162;81;21239;-67
2022/03/14 01:32:03;;;;;;;97.88;50.63;;;;;;;0.05;66.09;102350.19;1743955;81;21035;-67
2022/03/14 01:34:31;;;;;;;95.55;50.70;;;;;;;0.09;66.15;102349.41;1753732;81;21107;-67
2022/03/14 01:36:57;;;;;;;97.78;51.20;;;;;;;0.14;66.11;102351.96;1754177;81;21000;-67
2022/03/14 01:39:25;;;;;;;100.07;52.17;;;;;;;0.19;66.08;102352.34;1754370;81;21554;-66
2022/03/14 01:41:55;;;;;;;97.97;52.23;;;;;;;0.22;66.05;102350.73;1749938;81;21178;-67
2022/03/14 01:44:24;;;;;;;90.72;49.27;;;;;;;0.27;66.04;102353.44;1734932;81;21134;-66
2022/03/14 01:46:52;;;;;;;87.78;48.02;;;;;;;0.33;66.02;102346.27;1739521;81;21582;-67
2022/03/14 01:49:19;;;;;;;82.53;47.13;;;;;;;0.41;66.01;102353.77;1740724;81;21032;-66
2022/03/14 01:51:50;;;;;;;81.00;45.23;;;;;;;0.47;65.96;102353.69;1731312;81;21091;-67
2022/03/14 01:54:17;;;;;;;81.72;46.18;;;;;;;0.49;65.88;102354.35;1735927;81;21144;-66
2022/03/14 01:56:46;;;;;;;78.92;43.92;;;;;;;0.49;65.81;102351.72;1715381;81;21143;-66
2022/03/14 01:59:14;;;;;;;69.62;41.88;;;;;;;0.53;65.75;102353.11;1733222;81;21076;-67
2022/03/14 02:01:42;;;;;;;69.40;40.50;;;;;;;0.51;65.61;102351.10;1737319;81;21167;-67
2022/03/14 02:04:09;;;;;;;77.05;44.15;;;;;;;0.53;65.57;102351.80;1739906;80;21075;-67
2022/03/14 02:06:39;;;;;;;72.30;42.35;;;;;;;0.59;65.49;102359.56;1739941;81;21241;-66
2022/03/14 02:09:08;;;;;;;75.87;41.88;;;;;;;0.60;65.39;102355.48;1738446;81;21059;-66
2022/03/14 02:11:35;;;;;;;69.75;42.78;;;;;;;0.60;65.33;102352.86;1740940;81;21074;-67
2022/03/14 02:14:06;;;;;;;66.15;39.53;;;;;;;0.64;65.30;102357.33;1750369;81;21110;-66
2022/03/14 02:16:33;;;;;;;69.12;41.63;;;;;;;0.67;65.25;102355.73;1737563;81;21036;-66
2022/03/14 02:19:02;;;;;;;62.17;37.17;;;;;;;0.68;65.29;102366.58;1735035;81;21848;-66
2022/03/14 02:21:30;;;;;;;62.70;36.13;;;;;;;0.73;65.27;102363.52;1735473;81;20972;-67
2022/03/14 02:23:57;;;;;;;62.85;36.83;;;;;;;0.77;65.24;102359.61;1750690;81;21013;-67
2022/03/14 02:26:24;;;;;;;60.30;35.10;;;;;;;0.80;65.14;102361.95;1754224;81;21562;-65
2022/03/14 02:28:52;;;;;;;57.00;35.50;;;;;;;0.84;65.14;102368.07;1753924;81;21150;-66
2022/03/14 02:31:20;;;;;;;56.58;34.90;;;;;;;0.82;65.07;102367.88;1736698;81;21269;-66
2022/03/14 02:33:47;;;;;;;55.88;34.92;;;;;;;0.84;65.06;102370.70;1733564;81;21004;-67
2022/03/14 02:36:14;;;;;;;54.33;34.55;;;;;;;0.89;65.03;102371.59;1734957;81;21032;-68
2022/03/14 02:38:43;;;;;;;55.88;34.15;;;;;;;0.90;64.98;102375.87;1734497;81;21142;-66
2022/03/14 02:41:10;;;;;;;57.58;35.03;;;;;;;0.92;64.99;102376.06;1737219;81;20973;-67
2022/03/14 02:43:37;;;;;;;54.27;32.73;;;;;;;0.92;64.91;102373.89;1734924;81;21261;-66
2022/03/14 02:46:04;;;;;;;58.38;35.38;;;;;;;0.86;64.87;102378.46;1746942;81;21200;-67
2022/03/14 02:48:32;;;;;;;60.20;36.00;;;;;;;0.81;64.95;102383.33;1732996;81;21136;-67
2022/03/14 02:50:59;;;;;;;56.37;34.75;;;;;;;0.84;65.00;102379.09;1738082;81;21110;-66
2022/03/14 02:53:26;;;;;;;60.25;34.98;;;;;;;0.84;64.96;102383.03;1742477;81;20989;-66
2022/03/14 02:55:53;;;;;;;55.50;34.05;;;;;;;0.78;65.00;102380.98;1735429;81;21524;-67
2022/03/14 02:58:21;;;;;;;60.00;35.48;;;;;;;0.77;65.10;102380.16;1742804;81;21039;-67
2022/03/14 03:00:51;;;;;;;53.42;34.48;;;;;;;0.82;65.17;102383.66;1738295;81;21609;-66
2022/03/14 03:03:18;;;;;;;54.70;33.55;;;;;;;0.85;65.11;102380.73;1747499;81;21520;-66
2022/03/14 03:05:45;;;;;;;52.20;33.53;;;;;;;0.83;65.15;102374.31;1738160;81;21063;-66
2022/03/14 03:08:12;;;;;;;56.58;33.85;;;;;;;0.82;65.17;102375.77;1736223;81;21167;-65
2022/03/14 03:10:42;;;;;;;54.00;33.42;;;;;;;0.82;65.21;102376.59;1736742;81;21036;-67
2022/03/14 03:13:11;;;;;;;54.27;32.23;;;;;;;0.85;65.33;102378.92;1732830;81;21068;-65
2022/03/14 03:15:38;;;;;;;47.27;29.05;;;;;;;0.91;65.32;102378.83;1740730;81;21094;-66
2022/03/14 03:18:06;;;;;;;45.58;29.60;;;;;;;0.96;65.27;102382.34;1742921;81;21072;-66
2022/03/14 03:20:33;;;;;;;46.00;28.30;;;;;;;0.92;65.25;102376.52;1738368;81;21301;-67
2022/03/14 03:23:02;;;;;;;45.48;28.80;;;;;;;0.89;65.32;102378.17;1740094;81;21050;-67
2022/03/14 03:25:30;;;;;;;44.30;26.65;;;;;;;0.93;65.36;102379.52;1739653;81;20981;-66
2022/03/14 03:27:57;;;;;;;42.23;27.77;;;;;;;0.97;65.35;102372.16;1737659;81;21114;-68
2022/03/14 03:30:24;;;;;;;42.88;26.73;;;;;;;0.98;65.31;102386.46;1744272;81;20991;-67
2022/03/14 03:32:51;;;;;;;43.50;26.37;;;;;;;0.93;65.33;102388.73;1737459;81;21251;-67
2022/03/14 03:35:18;;;;;;;44.13;26.62;;;;;;;0.88;65.34;102387.84;1746728;81;21093;-67
2022/03/14 03:37:46;;;;;;;39.30;25.57;;;;;;;0.87;65.41;102392.77;1754399;81;21091;-67
2022/03/14 03:40:13;;;;;;;43.65;26.23;;;;;;;0.89;65.45;102392.64;1746651;81;21035;-67
2022/03/14 03:42:41;;;;;;;42.80;25.37;;;;;;;0.85;65.48;102400.46;1738472;81;21079;-66
2022/03/14 03:45:09;;;;;;;40.65;25.48;;;;;;;0.82;65.58;102398.12;1739761;81;21745;-65
2022/03/14 03:47:38;;;;;;;41.28;26.90;;;;;;;0.89;65.67;102400.03;1735731;81;21093;-67
2022/03/14 03:50:07;;;;;;;40.40;25.77;;;;;;;0.94;65.69;102394.32;1732311;81;21038;-66
2022/03/14 03:52:34;;;;;;;41.60;25.57;;;;;;;1.03;65.68;102396.56;1733767;81;21122;-65
2022/03/14 03:55:01;;;;;;;41.60;26.60;;;;;;;1.08;65.68;102400.38;1736721;81;21016;-66
2022/03/14 03:57:32;;;;;;;43.52;25.55;;;;;;;1.09;65.64;102400.73;1739630;81;21335;-67
2022/03/14 03:59:59;;;;;;;41.20;26.33;;;;;;;1.07;65.68;102402.68;1740162;81;21061;-66
2022/03/14 04:02:27;;;;;;;39.45;25.80;;;;;;;1.02;65.72;102400.14;1740749;81;21005;-66
2022/03/14 04:04:55;;;;;;;41.65;25.77;;;;;;;0.96;65.77;102402.08;1743878;80;21051;-66
2022/03/14 04:07:23;;;;;;;42.43;26.60;;;;;;;0.89;65.90;102403.98;1738968;81;20968;-66
2022/03/14 04:09:55;;;;;;;45.40;28.20;;;;;;;0.90;66.05;102410.06;1732882;81;22205;-66
2022/03/14 04:12:24;;;;;;;52.90;28.73;;;;;;;0.96;66.16;102411.29;1735923;81;21111;-66
2022/03/14 04:14:54;;;;;;;63.78;33.67;;;;;;;0.98;66.16;102415.41;1734224;81;21067;-65
2022/03/14 04:17:25;;;;;;;58.25;32.38;;;;;;;0.99;66.11;102411.82;1736949;81;21021;-67
2022/03/14 04:19:52;;;;;;;64.32;34.05;;;;;;;0.96;65.98;102415.23;1734601;81;21642;-67
2022/03/14 04:22:20;;;;;;;74.80;41.18;;;;;;;0.96;66.02;102413.92;1733264;81;21237;-66
2022/03/14 04:24:47;;;;;;;77.97;42.43;;;;;;;0.92;65.98;102418.62;1753527;81;21011;-66
2022/03/14 04:27:14;;;;;;;72.15;39.90;;;;;;;0.90;65.96;102417.96;1754262;81;21035;-67
2022/03/14 04:29:42;;;;;;;72.27;40.40;;;;;;;0.93;65.97;102413.23;1740785;81;21051;-67
2022/03/14 04:32:09;;;;;;;72.15;39.85;;;;;;;0.97;65.96;102420.34;1742450;81;21072;-67
2022/03/14 04:34:37;;;;;;;64.37;37.93;;;;;;;1.01;65.96;102420.87;1732577;81;22867;-67
2022/03/14 04:37:05;;;;;;;70.00;39.58;;;;;;;1.09;65.94;102414.39;1738677;81;21003;-66
2022/03/14 04:39:34;;;;;;;64.62;38.48;;;;;;;1.12;65.84;102416.23;1731205;81;21506;-67
2022/03/14 04:42:01;;;;;;;62.75;35.88;;;;;;;1.16;65.84;102422.02;1743055;81;21064;-65
2022/03/14 04:44:29;;;;;;;66.62;39.15;;;;;;;1.20;65.84;102419.43;1737777;81;21085;-67
2022/03/14 04:46:55;;;;;;;56.40;33.90;;;;;;;1.24;65.78;102419.95;1737828;81;21235;-66
2022/03/14 04:49:22;;;;;;;53.83;33.98;;;;;;;1.30;65.78;102420.67;1741334;81;21075;-67
2022/03/14 04:51:50;;;;;;;62.25;35.95;;;;;;;1.34;65.62;102420.70;1732260;81;21107;-66
2022/03/14 04:54:19;;;;;;;58.48;35.52;;;;;;;1.39;65.51;102423.73;1732994;81;21107;-67
2022/03/14 04:56:46;;;;;;;60.78;35.00;;;;;;;1.44;65.39;102425.91;1735868;81;21036;-68
2022/03/14 04:59:13;;;;;;;64.03;37.55;;;;;;;1.45;65.30;102412.60;1736169;81;21132;-67
2022/03/14 05:01:40;;;;;;;54.13;32.58;;;;;;;1.45;65.28;102416.55;1739726;81;21032;-67
2022/03/14 05:04:08;;;;;;;57.27;34.85;;;;;;;1.46;65.27;102423.95;1734653;81;21179;-67
2022/03/14 05:06:37;;;;;;;55.35;33.02;;;;;;;1.46;65.23;102422.14;1739570;81;21140;-67
2022/03/14 05:09:05;;;;;;;55.65;33.75;;;;;;;1.51;65.21;102419.87;1739038;81;21540;-66
2022/03/14 05:11:34;;;;;;;58.10;35.23;;;;;;;1.52;65.18;102421.55;1735937;81;21106;-66
2022/03/14 05:14:03;;;;;;;54.53;34.83;;;;;;;1.57;65.18;102423.22;1732730;81;21165;-66
2022/03/14 05:16:30;;;;;;;53.83;34.13;;;;;;;1.66;65.12;102426.77;1731467;81;21163;-66
2022/03/14 05:18:57;;;;;;;60.75;35.45;;;;;;;1.71;65.03;102431.56;1739324;81;21080;-67
2022/03/14 05:21:25;;;;;;;56.30;34.08;;;;;;;1.78;64.99;102431.31;1740150;81;21088;-67
2022/03/14 05:23:52;;;;;;;55.60;35.43;;;;;;;1.88;64.92;102436.00;1734754;81;21163;-67
2022/03/14 05:26:19;;;;;;;58.08;35.25;;;;;;;1.97;64.87;102440.83;1740816;81;21083;-67
2022/03/14 05:28:47;;;;;;;56.50;34.75;;;;;;;2.03;64.73;102435.77;1742625;81;21177;-67
2022/03/14 05:31:14;;;;;;;56.60;34.67;;;;;;;2.11;64.64;102441.60;1754047;81;21019;-67
2022/03/14 05:33:41;;;;;;;52.50;33.90;;;;;;;2.21;64.54;102448.09;1753747;81;21123;-66
2022/03/14 05:36:08;;;;;;;56.30;34.65;;;;;;;2.26;64.36;102438.71;1735966;81;21206;-69
2022/03/14 05:38:38;;;;;;;52.45;33.15;;;;;;;2.32;64.18;102438.59;1722585;81;21102;-66
2022/03/14 05:41:05;;;;;;;53.85;35.28;;;;;;;2.40;63.96;102442.58;1742082;81;21544;-67
2022/03/14 05:43:36;;;;;;;56.23;35.40;;;;;;;2.44;63.78;102447.08;1742871;81;20995;-66
2022/03/14 05:46:00;;;;;;;56.88;35.05;;;;;;;2.48;63.67;102446.59;1746309;81;21056;-66
2022/03/14 05:48:27;;;;;;;56.20;35.17;;;;;;;2.49;63.59;102444.78;1749699;81;21236;-67
2022/03/14 05:50:54;;;;;;;56.13;36.42;;;;;;;2.52;63.49;102437.38;1754223;81;20976;-68
2022/03/14 05:53:23;;;;;;;59.42;37.25;;;;;;;2.61;63.36;102441.39;1739003;81;21072;-68
2022/03/14 05:55:50;;;;;;;54.05;35.50;;;;;;;2.67;63.11;102439.44;1737162;81;21158;-67
2022/03/14 05:58:17;;;;;;;55.00;34.27;;;;;;;2.69;62.90;102442.73;1735157;81;21099;-66
2022/03/14 06:00:44;;;;;;;59.00;35.55;;;;;;;2.72;62.81;102437.13;1733777;81;21495;-67
2022/03/14 06:03:11;;;;;;;59.90;36.17;;;;;;;2.78;62.71;102445.74;1737754;81;21646;-66
2022/03/14 06:05:37;;;;;;;55.73;36.63;;;;;;;2.82;62.61;102443.93;1738869;81;21099;-67
2022/03/14 06:08:05;;;;;;;55.63;35.70;;;;;;;2.89;62.55;102434.88;1750018;81;20979;-68
2022/03/14 06:10:33;;;;;;;55.17;35.03;;;;;;;2.91;62.41;102434.73;1747959;80;20988;-67
2022/03/14 06:13:00;;;;;;;53.92;34.48;;;;;;;2.94;62.41;102432.60;1744134;81;21395;-67
2022/03/14 06:15:27;;;;;;;50.95;33.63;;;;;;;2.98;62.40;102433.11;1736251;81;21197;-66
2022/03/14 06:17:56;;;;;;;52.45;34.65;;;;;;;3.04;62.44;102439.07;1736433;80;21531;-68
2022/03/14 06:20:23;;;;;;;45.48;31.17;;;;;;;3.15;62.48;102436.61;1732560;80;21158;-66
2022/03/14 06:22:53;;;;;;;47.90;30.90;;;;;;;3.27;62.16;102439.28;1740427;81;21103;-65
2022/03/14 06:25:21;;;;;;;46.13;30.00;;;;;;;3.37;61.84;102439.97;1704195;83;21168;-67
2022/03/14 06:27:51;;;;;;;43.08;29.90;;;;;;;3.51;61.52;102438.48;1709264;83;21114;-67
2022/03/14 06:30:20;;;;;;;44.53;29.18;;;;;;;3.61;60.89;102439.16;1735541;81;21662;-67
2022/03/14 06:32:49;;;;;;;39.75;26.57;;;;;;;3.68;60.31;102434.86;1735136;81;21111;-67
2022/03/14 06:35:17;;;;;;;39.70;27.10;;;;;;;3.74;59.55;102433.37;1736652;81;21028;-66
2022/03/14 06:37:47;;;;;;;36.60;24.80;;;;;;;3.70;58.76;102434.70;1735896;81;21245;-67
2022/03/14 06:40:15;;;;;;;33.48;22.22;;;;;;;3.71;58.01;102429.74;1731465;81;21087;-67
2022/03/14 06:42:48;;;;;;;35.08;24.32;;;;;;;3.75;57.18;102428.41;1737981;81;21623;-67
2022/03/14 06:45:14;;;;;;;33.98;21.95;;;;;;;3.78;56.54;102425.94;1747927;81;21060;-68
2022/03/14 06:47:41;;;;;;;30.00;21.42;;;;;;;3.81;55.90;102428.25;1743061;81;21143;-67
2022/03/14 06:50:10;;;;;;;33.35;22.62;;;;;;;3.84;55.40;102431.39;1731684;81;21142;-67
2022/03/14 06:52:38;;;;;;;23.90;16.62;;;;;;;3.90;55.19;102433.37;1733324;81;21422;-67
2022/03/14 06:55:07;;;;;;;17.12;10.60;;;;;;;3.96;54.52;102438.00;1738317;81;21111;-66
2022/03/14 06:57:34;;;;;;;23.87;15.85;;;;;;;3.99;52.35;102440.31;1739499;81;21143;-67
2022/03/14 07:00:01;;;;;;;14.30;9.18;;;;;;;3.94;51.90;102448.41;1734986;81;21074;-67
2022/03/14 07:02:28;;;;;;;11.78;7.45;;;;;;;3.90;51.25;102449.23;1734803;81;21554;-67
2022/03/14 07:04:56;;;;;;;11.63;6.92;;;;;;;3.92;50.54;102445.94;1737759;81;21083;-67
2022/03/14 07:07:23;;;;;;;8.65;6.20;;;;;;;3.93;49.69;102455.52;1739107;81;21447;-68
2022/03/14 07:09:50;;;;;;;8.33;5.60;;;;;;;3.89;48.51;102445.45;1735680;81;21051;-68
2022/03/14 07:12:19;;;;;;;8.18;5.72;;;;;;;3.88;48.37;102451.23;1752987;81;21507;-67
2022/03/14 07:14:47;;;;;;;7.80;4.90;;;;;;;3.88;48.16;102454.34;1740809;81;21679;-67
2022/03/14 07:17:14;;;;;;;8.55;4.80;;;;;;;3.93;47.97;102456.84;1736506;81;21072;-68
2022/03/14 07:19:45;;;;;;;7.15;4.72;;;;;;;3.97;47.30;102460.79;1736488;81;21079;-68
2022/03/14 07:22:10;;;;;;;7.67;5.03;;;;;;;3.97;46.77;102461.29;1722381;83;21053;-70
2022/03/14 07:24:37;;;;;;;9.60;5.40;;;;;;;3.95;46.56;102458.00;1724570;81;21028;-70
2022/03/14 07:27:05;;;;;;;9.43;4.90;;;;;;;3.96;46.76;102460.97;1737454;81;21630;-67
2022/03/14 07:29:33;;;;;;;8.40;5.42;;;;;;;3.98;46.52;102457.64;1740223;81;21174;-67
2022/03/14 07:32:01;;;;;;;7.85;5.60;;;;;;;4.02;46.37;102451.55;1746175;81;21539;-68
2022/03/14 07:34:29;;;;;;;9.35;6.30;;;;;;;4.07;46.64;102458.48;1754165;81;21146;-70
2022/03/14 07:36:58;;;;;;;9.93;7.08;;;;;;;4.15;46.18;102455.84;1751498;81;21125;-69
2022/03/14 07:39:25;;;;;;;9.68;5.85;;;;;;;4.18;45.74;102451.53;1752253;81;21092;-70
2022/03/14 07:41:52;;;;;;;7.53;5.22;;;;;;;4.16;45.72;102458.30;1747842;81;21106;-69
2022/03/14 07:44:19;;;;;;;9.68;5.25;;;;;;;4.15;45.66;102457.98;1744724;81;21127;-69
2022/03/14 07:46:48;;;;;;;8.50;5.33;;;;;;;4.18;46.02;102457.64;1733387;81;21552;-68
2022/03/14 07:49:15;;;;;;;10.45;7.22;;;;;;;4.21;45.91;102452.49;1732664;81;21559;-67
2022/03/14 07:51:43;;;;;;;11.55;7.97;;;;;;;4.28;45.93;102457.47;1736588;81;21104;-68
2022/03/14 07:54:10;;;;;;;9.18;6.90;;;;;;;4.38;45.88;102451.98;1739078;81;21393;-68
2022/03/14 07:56:37;;;;;;;12.55;8.60;;;;;;;4.42;45.18;102462.05;1744300;81;21071;-68
2022/03/14 07:59:05;;;;;;;13.48;8.45;;;;;;;4.41;45.20;102453.80;1738058;81;21078;-68
2022/03/14 08:01:35;;;;;;;14.20;9.90;;;;;;;4.42;45.07;102451.97;1743824;81;21102;-68
2022/03/14 08:04:01;;;;;;;16.40;10.18;;;;;;;4.42;44.78;102443.53;1739968;81;21152;-70
2022/03/14 08:06:28;;;;;;;15.10;11.08;;;;;;;4.44;44.66;102454.78;1735207;81;21060;-70
2022/03/14 08:09:02;;;;;;;13.43;10.28;;;;;;;4.43;44.96;102450.97;1743411;81;21107;-69
2022/03/14 08:11:30;;;;;;;17.80;11.83;;;;;;;4.44;44.74;102450.81;1734762;81;21094;-70
2022/03/14 08:13:58;;;;;;;14.28;11.22;;;;;;;4.45;45.00;102468.33;1739363;81;21036;-68
2022/03/14 08:16:27;;;;;;;18.50;12.25;;;;;;;4.46;44.83;102454.09;1753620;81;21033;-69
2022/03/14 08:18:55;;;;;;;13.48;10.75;;;;;;;4.55;44.79;102454.09;1750625;81;21016;-69
2022/03/14 08:21:22;;;;;;;14.63;10.25;;;;;;;4.61;44.65;102460.03;1748681;81;21040;-70
2022/03/14 08:23:50;;;;;;;13.43;10.40;;;;;;;4.54;44.05;102459.03;1738429;81;21079;-69
2022/03/14 08:26:17;;;;;;;13.45;10.72;;;;;;;4.48;44.41;102458.42;1736291;81;22133;-68
2022/03/14 08:28:45;;;;;;;14.85;10.13;;;;;;;4.51;44.49;102457.58;1738690;81;21099;-70
2022/03/14 08:31:12;;;;;;;11.97;8.75;;;;;;;4.54;44.29;102456.39;1735534;81;21286;-69
2022/03/14 08:33:41;;;;;;;13.20;8.80;;;;;;;4.60;44.09;102461.00;1734385;81;21021;-69
2022/03/14 08:36:09;;;;;;;12.68;8.90;;;;;;;4.71;43.76;102452.71;1724428;81;21084;-69
2022/03/14 08:38:38;;;;;;;11.12;8.08;;;;;;;4.88;44.04;102445.02;1754278;81;21072;-70
2022/03/14 08:41:05;;;;;;;12.78;9.45;;;;;;;5.08;43.36;102435.32;1745653;81;22175;-69
2022/03/14 08:43:33;;;;;;;13.22;9.13;;;;;;;5.17;43.23;102437.75;1738516;81;21718;-68
2022/03/14 08:46:03;;;;;;;11.22;8.45;;;;;;;5.22;43.17;102437.22;1746942;81;21037;-69
2022/03/14 08:48:31;;;;;;;11.75;8.73;;;;;;;5.24;42.59;102429.11;1751059;80;21024;-69
2022/03/14 08:50:58;;;;;;;11.05;7.65;;;;;;;5.22;42.28;102434.56;1753912;81;21012;-69
2022/03/14 08:53:25;;;;;;;11.10;7.80;;;;;;;5.15;42.12;102426.49;1746704;80;21547;-68
2022/03/14 08:55:53;;;;;;;11.50;8.08;;;;;;;5.15;42.38;102429.14;1735624;80;21038;-69
2022/03/14 08:58:21;;;;;;;10.03;8.00;;;;;;;5.19;42.35;102426.97;1741005;80;32645;-68
2022/03/14 09:00:48;;;;;;;9.93;6.45;;;;;;;5.21;42.08;102420.19;1738793;80;21677;-69
2022/03/14 09:03:18;;;;;;;9.70;6.50;;;;;;;5.23;41.89;102422.14;1754452;81;21092;-67
2022/03/14 09:05:46;;;;;;;15.53;6.85;;;;;;;5.23;42.17;102422.98;1754360;81;21294;-70
2022/03/14 09:08:13;;;;;;;9.45;6.62;;;;;;;5.25;41.91;102426.77;1739156;81;21060;-69
2022/03/14 09:10:42;;;;;;;10.58;6.47;;;;;;;5.20;41.87;102416.72;1750583;81;21035;-68
2022/03/14 09:13:12;;;;;;;9.80;6.50;;;;;;;5.14;42.12;102420.06;1754354;81;21002;-68
2022/03/14 09:15:40;;;;;;;9.10;6.30;;;;;;;5.12;42.22;102419.40;1714303;83;21525;-67
2022/03/14 09:18:07;;;;;;;11.63;7.42;;;;;;;5.14;41.97;102412.94;1739989;81;21148;-68
2022/03/14 09:20:38;;;;;;;12.53;8.10;;;;;;;5.11;42.07;102409.81;1736774;81;22009;-68
2022/03/14 09:23:07;;;;;;;13.10;7.58;;;;;;;5.05;42.04;102410.00;1732271;81;21614;-68
2022/03/14 09:25:34;;;;;;;12.00;8.43;;;;;;;5.03;42.40;102405.37;1729887;81;21076;-69
2022/03/14 09:28:01;;;;;;;11.88;7.53;;;;;;;5.02;42.20;102409.53;1735478;81;22499;-70
2022/03/14 09:30:29;;;;;;;15.23;9.00;;;;;;;4.98;41.96;102397.64;1737459;81;21893;-70
2022/03/14 09:32:58;;;;;;;13.05;9.00;;;;;;;4.92;42.15;102397.33;1732390;81;21158;-69
2022/03/14 09:35:25;;;;;;;11.00;7.50;;;;;;;4.92;42.58;102396.00;1724118;83;21442;-68
2022/03/14 09:37:54;;;;;;;9.95;7.35;;;;;;;4.92;42.25;102390.70;1720467;83;21142;-69
2022/03/14 09:40:22;;;;;;;11.95;8.45;;;;;;;4.93;42.68;102389.70;1706030;83;21003;-69
2022/03/14 09:42:52;;;;;;;12.28;8.30;;;;;;;4.96;42.40;102387.20;1737041;81;21172;-68
2022/03/14 09:45:21;;;;;;;15.90;10.32;;;;;;;5.02;42.70;102384.38;1740768;81;21109;-68
2022/03/14 09:47:58;;;;;;;15.30;10.50;;;;;;;5.05;42.50;102380.05;1744066;81;21768;-68
2022/03/14 09:50:39;;;;;;;16.95;11.68;;;;;;;5.03;42.65;102380.20;1735158;81;21017;-68
2022/03/14 09:53:09;;;;;;;17.62;12.43;;;;;;;5.00;42.51;102391.18;1724200;83;21084;-67
2022/03/14 09:55:43;;;;;;;14.43;10.72;;;;;;;4.94;42.45;102386.08;1736239;81;21128;-68
2022/03/14 09:58:20;;;;;;;15.43;11.43;;;;;;;5.06;42.92;102393.10;1739266;81;21498;-67
2022/03/14 10:00:48;;;;;;;15.50;10.63;;;;;;;5.22;42.36;102392.69;1752715;81;21103;-69
2022/03/14 10:03:17;;;;;;;12.88;9.25;;;;;;;5.36;42.13;102382.16;1755160;81;20976;-66
2022/03/14 10:05:44;;;;;;;11.25;8.05;;;;;;;5.51;41.77;102381.38;1753311;81;21013;-68
2022/03/14 10:08:12;;;;;;;13.28;8.33;;;;;;;5.64;41.53;102378.44;1752460;81;21177;-68
2022/03/14 10:10:39;;;;;;;11.30;8.65;;;;;;;5.73;41.61;102373.89;1735262;81;21091;-67
2022/03/14 10:13:10;;;;;;;11.40;8.25;;;;;;;5.88;41.48;102380.02;1744192;80;21535;-69
2022/03/14 10:15:40;;;;;;;14.45;8.40;;;;;;;6.01;41.10;102362.70;1737382;81;21044;-68
2022/03/14 10:18:15;;;;;;;13.05;8.98;;;;;;;6.10;40.37;102354.47;1746054;80;21021;-69
2022/03/14 10:21:07;;;;;;;16.17;9.53;;;;;;;6.15;40.38;102353.91;1737011;81;21025;-69
2022/03/14 10:23:43;;;;;;;16.23;10.85;;;;;;;6.20;40.50;102356.84;1737329;81;21661;-66
2022/03/14 10:26:18;;;;;;;16.82;11.83;;;;;;;6.26;39.90;102342.85;1734098;81;21595;-68
2022/03/14 10:28:49;;;;;;;15.45;10.95;;;;;;;6.35;40.13;102347.56;1738289;81;21161;-69
2022/03/14 10:31:15;;;;;;;16.57;12.28;;;;;;;6.47;39.83;102336.77;1754291;81;21470;-68
2022/03/14 10:33:45;;;;;;;17.55;12.78;;;;;;;6.53;40.06;102338.69;1751813;81;21213;-68
2022/03/14 10:36:15;;;;;;;20.00;13.95;;;;;;;6.61;39.50;102338.25;1697013;81;22080;-68
2022/03/14 10:38:44;;;;;;;22.45;16.17;;;;;;;6.65;39.13;102336.38;1733299;81;21012;-68
2022/03/14 10:41:14;;;;;;;17.67;12.93;;;;;;;6.55;38.83;102334.02;1722618;83;20977;-68
2022/03/14 10:43:42;;;;;;;18.87;13.35;;;;;;;6.48;38.92;102321.66;1733854;81;20977;-68
2022/03/14 10:46:09;;;;;;;20.85;13.55;;;;;;;6.50;38.98;102324.45;1738293;81;21551;-68
2022/03/14 10:48:43;;;;;;;20.25;13.55;;;;;;;6.47;38.78;102320.84;1724620;81;20991;-68
2022/03/14 10:51:14;;;;;;;21.37;14.13;;;;;;;6.47;39.50;102322.68;1740766;81;21110;-71
2022/03/14 10:53:44;;;;;;;19.40;13.95;;;;;;;6.49;39.19;102314.03;1742798;81;21031;-71
2022/03/14 10:56:12;;;;;;;20.23;14.33;;;;;;;6.57;39.12;102320.04;1732197;81;21094;-68
2022/03/14 10:58:39;;;;;;;22.93;15.10;;;;;;;6.73;39.23;102317.66;1740412;81;21467;-67
2022/03/14 11:01:08;;;;;;;20.08;13.98;;;;;;;6.94;39.43;102316.03;1742179;81;21539;-68
2022/03/14 11:03:41;;;;;;;20.90;14.40;;;;;;;7.10;38.13;102301.67;1738282;81;21087;-71
2022/03/14 11:06:13;;;;;;;19.85;14.80;;;;;;;7.19;38.35;102304.02;1744807;81;21080;-70
2022/03/14 11:08:47;;;;;;;24.02;13.65;;;;;;;7.28;38.43;102304.20;1750430;81;21097;-71
2022/03/14 11:11:22;;;;;;;18.62;12.78;;;;;;;7.34;37.48;102301.28;1739018;80;21185;-73
2022/03/14 11:13:51;;;;;;;17.02;12.05;;;;;;;7.29;37.57;102285.89;1735972;81;20944;-69
2022/03/14 11:16:34;;;;;;;15.55;11.10;;;;;;;7.31;37.14;102287.56;1747934;81;21594;-69
2022/03/14 11:19:05;;;;;;;16.23;10.88;;;;;;;7.28;37.30;102290.09;1756010;81;20995;-68
2022/03/14 11:21:33;;;;;;;16.00;10.60;;;;;;;7.20;37.12;102287.05;1746243;81;21126;-68
2022/03/14 11:24:03;;;;;;;14.35;10.18;;;;;;;7.21;37.36;102284.72;1749358;81;21144;-67